METAR (acronimo di METeorological Air Report) è un messaggio meteo emesso nella maggior parte dei casi in ambito aeroportuale

YSSY - Sydney, Australia
Ultimo Aggiornamento: Giovedì 04 Giugno 2020 03:30 CEST
Prevalentemente Nuvoloso
Prevalentemente Nuvoloso
 Wind from Sud-Sud-Ovest
Vento: Sud-Sud-Ovest 30 km/h
Temperatura: 15°C
Punto di Rugiada: 7°C
Umidità: 59%
Barometro: 1032 hPa
Nuvole: Prevalentemente Nuvoloso
Visibilità: 10 km
Nuvole nel Dettaglio: Qualche Nuvola 1067 m
Prevalentemente Nuvoloso 1128 m
2020/06/04 01:30 YSSY 040130Z 21016KT 9999 FEW035 BKN037 15/07 Q1032 NOSIG
YMML - Melbourne, Australia
Ultimo Aggiornamento: Giovedì 04 Giugno 2020 03:30 CEST
Parzialmente Nuvoloso
Parzialmente Nuvoloso
 Wind from Sud
Vento: Sud 9 km/h
Temperatura: 13°C
Punto di Rugiada: 5°C
Umidità: 59%
Barometro: 1034 hPa
Nuvole: Parzialmente Nuvoloso
Visibilità: 10 km
Nuvole nel Dettaglio: Parzialmente Nuvoloso 853 m
2020/06/04 01:30 YMML 040130Z 17005KT 9999 SCT028 13/05 Q1034 NOSIG
YBBN - Brisbane, Australia
Ultimo Aggiornamento: Giovedì 04 Giugno 2020 03:30 CEST
Qualche Nuvola
Qualche Nuvola
 Wind from Sud-Sud-Est
Vento: Sud-Sud-Est 13 km/h
Temperatura: 20°C
Punto di Rugiada: 9°C
Umidità: 49%
Barometro: 1027 hPa
Nuvole: Qualche Nuvola
Visibilità: 10 km
Nuvole nel Dettaglio: Qualche Nuvola 1311 m
2020/06/04 01:30 YBBN 040130Z 16007KT 9999 FEW043 20/09 Q1027 NOSIG
 
YPPH - Perth, Australia
Ultimo Aggiornamento: Giovedì 04 Giugno 2020 03:30 CEST
Sereno
Sereno
 Wind from calm
Vento: Calma
Temperatura: 19°C
Punto di Rugiada: 10°C
Umidità: 56%
Barometro: 1023 hPa
Condizioni: Sereno
Visibilità: superiore a 10 km
2020/06/04 01:30 YPPH 040130Z 00000KT CAVOK 19/10 Q1023 NOSIG
YBAS - Alice Springs, Australia
Ultimo Aggiornamento: Giovedì 04 Giugno 2020 03:30 CEST
Sereno
Sereno
 Wind from Est
Vento: Est 22 km/h
Temperatura: 14°C
Punto di Rugiada: 5°C
Umidità: 55%
Barometro: 1028 hPa
Condizioni: Sereno
Visibilità: superiore a 10 km
2020/06/04 01:30 YBAS 040130Z 09012KT CAVOK 14/05 Q1028
NZAA - Auckland, New Zealand
Ultimo Aggiornamento: Giovedì 04 Giugno 2020 03:30 CEST
Pioggia Leggera, Qualche Nuvola
Pioggia Leggera, Qualche Nuvola
 Wind from Nord-Nord-Est
Vento: Nord-Nord-Est 11 km/h
Temperatura: 17°C
Punto di Rugiada: 15°C
Umidità: 88%
Barometro: 1005 hPa
Condizioni: Pioggia Leggera
Nuvole: Qualche Nuvola
Visibilità: 10 km
Nuvole nel Dettaglio: Qualche Nuvola 1829 m
2020/06/04 01:30 NZAA 040130Z AUTO 02006KT 9999 -RA FEW060/// 17/15 Q1005 NOSIG
 
NTAA - Tahiti, French Polynesia
Ultimo Aggiornamento: Giovedì 04 Giugno 2020 03:30 CEST
Parzialmente Nuvoloso
Parzialmente Nuvoloso
 Wind from Ovest-Nord-Ovest
Vento: Ovest-Nord-Ovest 19 km/h
Temperatura: 27°C
Heat Index: 29°C
Punto di Rugiada: 20°C
Umidità: 66%
Barometro: 1008 hPa
Nuvole: Parzialmente Nuvoloso
Visibilità: 10 km
Nuvole nel Dettaglio: Qualche Nuvola 2012 m
Parzialmente Nuvoloso 7925 m
2020/06/04 01:30 NTAA 040130Z 29010KT 9999 FEW066 SCT260 27/20 Q1008 NOSIG
NFFN - Nadi, Fiji
Ultimo Aggiornamento: Giovedì 04 Giugno 2020 03:00 CEST
Parzialmente Nuvoloso
Parzialmente Nuvoloso
 Wind from Ovest-Nord-Ovest
Vento: Ovest-Nord-Ovest 19 km/h
Temperatura: 29°C
Heat Index: 34°C
Punto di Rugiada: 25°C
Umidità: 79%
Barometro: 1012 hPa
Nuvole: Parzialmente Nuvoloso
Visibilità: 10 km
Nuvole nel Dettaglio: Parzialmente Nuvoloso 853 m
Parzialmente Nuvoloso 1463 m
2020/06/04 01:00 NFFN 040100Z 29010KT 9999 SCT028TCU SCT048 29/25 Q1012 TEMPO 5000 TSRA FEW018CB
PKMJ - Majuro, Marshall Islands
Ultimo Aggiornamento: Giovedì 04 Giugno 2020 01:15 CEST
Dati non Recenti
Prevalentemente Nuvoloso
Prevalentemente Nuvoloso
 Wind from Nord-Est
Vento: Nord-Est 26 km/h
Temperatura: 30°C
Heat Index: 36°C
Punto di Rugiada: 25°C
Umidità: 75%
Barometro: 1011.9 hPa
Nuvole: Prevalentemente Nuvoloso
Visibilità: 24 km
Nuvole nel Dettaglio: Qualche Nuvola 457 m
Parzialmente Nuvoloso 1524 m
Prevalentemente Nuvoloso 9144 m
2020/06/03 23:15 PKMJ 032315Z 05014KT 15SM FEW015 SCT050 BKN300 30/25 A2988 RMK LAST
 
PGUM - Hagatna, Guam, United States
Ultimo Aggiornamento: Giovedì 04 Giugno 2020 02:54 CEST
Parzialmente Nuvoloso
Parzialmente Nuvoloso
 Wind from Est
Vento: Est 24 km/h
Temperatura: 31°C
Heat Index: 37°C
Punto di Rugiada: 24°C
Umidità: 66%
Barometro: 1013.2 hPa
Nuvole: Parzialmente Nuvoloso
Visibilità: 16 km
Nuvole nel Dettaglio: Parzialmente Nuvoloso 701 m
2020/06/04 00:54 PGUM 040054Z 09013KT 10SM SCT023 31/24 A2992 RMK AO2 SLP122 T03110239
AYPY - Port Moresby, Papua New Guinea
Ultimo Aggiornamento: Giovedì 04 Giugno 2020 03:00 CEST
Nuvoloso
Nuvoloso
 Wind from Nord-Ovest
Vento: Nord-Ovest 13 km/h
Temperatura: 29°C
Heat Index: 36°C
Punto di Rugiada: 26°C
Umidità: 84%
Barometro: 1012 hPa
Nuvole: Nuvoloso
Visibilità: 10 km
Nuvole nel Dettaglio: Parzialmente Nuvoloso 457 m
Prevalentemente Nuvoloso 762 m
Nuvoloso 1067 m
2020/06/04 01:00 AYPY 040100Z 32007KT 9999 SCT015 BKN025 OVC035 29/26 Q1012
AGGH - Honiara, Guadalcanal, Solomon Islands
Ultimo Aggiornamento: Giovedì 04 Giugno 2020 03:00 CEST
Parzialmente Nuvoloso
Parzialmente Nuvoloso
 Wind from Nord-Est
Vento: Nord-Est 9 km/h
Temperatura: 31°C
Heat Index: 39°C
Punto di Rugiada: 26°C
Umidità: 75%
Barometro: 1011 hPa
Nuvole: Parzialmente Nuvoloso
Visibilità: 10 km
Nuvole nel Dettaglio: Qualche Nuvola 610 m
Qualche Nuvola 640 m
Parzialmente Nuvoloso 9144 m
2020/06/04 01:00 AGGH 040100Z 05005KT 9999 FEW020 FEW021CB SCT300 31/26 Q1011 RMKS/ CB TO SW